Time;durP1;ratioP1;P1;durP2;ratioP2;P2;SDS_P1;SDS_P2;PMS_P1;PMS_P2;Temp;Humidity;BMP_temperature;BMP_pressure;BME280_temperature;BME280_humidity;BME280_pressure;Samples;Min_cycle;Max_cycle;Signal;HPM_P1;HPM_P2
2021/04/16 00:00:57;;;;;;;1999.90;999.90;;;21.70;60.00;;;;;;5029746;28;20257;-58
2021/04/16 00:03:24;;;;;;;1999.90;999.90;;;21.60;60.80;;;;;;5029826;28;20223;-54
2021/04/16 00:05:51;;;;;;;1999.90;999.90;;;21.50;61.50;;;;;;5029684;28;20201;-57
2021/04/16 00:08:22;;;;;;;1999.90;999.90;;;21.40;62.30;;;;;;5029818;28;20169;-58
2021/04/16 00:10:55;;;;;;;1999.90;999.90;;;21.30;62.70;;;;;;5029787;28;20161;-58
2021/04/16 00:13:24;;;;;;;1999.90;999.90;;;21.20;63.50;;;;;;5029784;28;20218;-38
2021/04/16 00:15:52;;;;;;;1999.90;999.90;;;21.10;64.50;;;;;;5029651;28;20162;-56
2021/04/16 00:18:24;;;;;;;1999.90;999.90;;;21.00;64.20;;;;;;5029593;28;20210;-58
2021/04/16 00:20:51;;;;;;;1999.90;999.90;;;20.80;64.80;;;;;;5029494;28;20241;-38
2021/04/16 00:23:18;;;;;;;1999.90;999.90;;;20.80;65.00;;;;;;5030149;28;20269;-37
2021/04/16 00:25:45;;;;;;;1999.90;999.90;;;20.80;63.90;;;;;;5033179;28;20167;-49
2021/04/16 00:28:13;;;;;;;1999.90;999.90;;;20.80;64.10;;;;;;5033007;28;20166;-58
2021/04/16 00:30:51;;;;;;;1999.90;999.90;;;20.80;64.10;;;;;;5032999;28;20170;-55
2021/04/16 00:33:17;;;;;;;1999.90;999.90;;;20.80;64.40;;;;;;5032960;28;20283;-42
2021/04/16 00:35:45;;;;;;;1999.90;999.90;;;20.70;65.00;;;;;;5033031;28;20173;-38
2021/04/16 00:38:13;;;;;;;1999.90;999.90;;;20.70;65.60;;;;;;5032870;28;20258;-48
2021/04/16 00:40:46;;;;;;;1999.90;999.90;;;20.70;65.90;;;;;;5032833;28;20174;-48
2021/04/16 00:43:16;;;;;;;1999.90;999.90;;;20.60;66.30;;;;;;5032844;28;20175;-38
2021/04/16 00:45:47;;;;;;;1999.90;999.90;;;20.50;66.20;;;;;;5032716;28;20176;-42
2021/04/16 00:48:36;;;;;;;1999.90;999.90;;;20.50;67.10;;;;;;5032787;28;20162;-38
2021/04/16 00:51:07;;;;;;;1999.90;999.90;;;20.50;67.00;;;;;;5032746;28;20564;-41
2021/04/16 00:53:35;;;;;;;1999.90;999.90;;;20.40;67.10;;;;;;5032906;28;20339;-38
2021/04/16 00:56:03;;;;;;;1999.90;999.90;;;20.30;67.40;;;;;;5032556;28;20169;-61
2021/04/16 00:58:32;;;;;;;1999.90;999.90;;;20.30;67.70;;;;;;5032539;28;20178;-59
2021/04/16 01:01:01;;;;;;;1999.90;999.90;;;20.20;67.80;;;;;;5032502;28;20181;-38
2021/04/16 01:03:28;;;;;;;1999.90;999.90;;;20.20;68.40;;;;;;5032500;28;20704;-58
2021/04/16 01:05:58;;;;;;;1999.90;999.90;;;20.20;68.30;;;;;;5032447;28;20176;-58
2021/04/16 01:08:25;;;;;;;1999.90;999.90;;;20.20;68.30;;;;;;5032355;28;20171;-39
2021/04/16 01:10:52;;;;;;;1999.90;999.90;;;20.10;68.80;;;;;;5032337;28;20235;-58
2021/04/16 01:13:22;;;;;;;1999.90;999.90;;;20.10;69.30;;;;;;5032196;28;20205;-57
2021/04/16 01:15:55;;;;;;;1999.90;999.90;;;20.00;69.40;;;;;;5032066;28;20640;-59
2021/04/16 01:18:26;;;;;;;1999.90;999.90;;;20.00;69.70;;;;;;5032112;28;20213;-58
2021/04/16 01:20:56;;;;;;;1999.90;999.90;;;20.00;69.50;;;;;;5032060;28;20217;-42
2021/04/16 01:23:38;;;;;;;1999.90;999.90;;;20.00;69.70;;;;;;5032200;28;20177;-38
2021/04/16 01:26:06;;;;;;;1999.90;999.90;;;20.00;69.50;;;;;;5032210;28;20162;-57
2021/04/16 01:28:34;;;;;;;1999.90;999.90;;;20.00;69.20;;;;;;5032153;28;20174;-38
2021/04/16 01:31:02;;;;;;;1999.90;999.90;;;20.10;69.00;;;;;;5032073;28;20174;-57
2021/04/16 01:33:32;;;;;;;1999.90;999.90;;;20.10;69.10;;;;;;5031998;28;20171;-38
2021/04/16 01:35:59;;;;;;;1999.90;999.90;;;20.20;68.70;;;;;;5030651;28;20166;-59
2021/04/16 01:38:28;;;;;;;1999.90;999.90;;;20.20;68.20;;;;;;5031953;28;20170;-58
2021/04/16 01:40:54;;;;;;;1999.90;999.90;;;20.20;68.40;;;;;;5031961;28;20620;-57
2021/04/16 01:43:31;;;;;;;1999.90;999.90;;;20.00;68.80;;;;;;5031767;28;20224;-58
2021/04/16 01:46:05;;;;;;;1999.90;999.90;;;20.10;69.00;;;;;;5031883;28;20166;-57
2021/04/16 01:48:47;;;;;;;1999.90;999.90;;;20.00;69.60;;;;;;5031893;28;20166;-57
2021/04/16 01:51:18;;;;;;;1999.90;999.90;;;20.00;69.30;;;;;;5031841;28;20261;-38
2021/04/16 01:53:45;;;;;;;1999.90;999.90;;;19.90;69.70;;;;;;5031883;28;20166;-55
2021/04/16 01:56:12;;;;;;;1999.90;999.90;;;19.80;69.70;;;;;;5031754;28;20254;-40
2021/04/16 01:58:39;;;;;;;1999.90;999.90;;;19.80;69.60;;;;;;5031651;28;20185;-41
2021/04/16 02:01:09;;;;;;;1999.90;999.90;;;20.80;60.90;;;;;;5031620;28;20488;-60
2021/04/16 02:03:35;;;;;;;1999.90;999.90;;;21.40;60.20;;;;;;5031389;28;20182;-59
2021/04/16 02:06:03;;;;;;;1999.90;999.90;;;21.20;62.10;;;;;;5031574;28;20173;-50
2021/04/16 02:08:29;;;;;;;1999.90;999.90;;;21.40;59.40;;;;;;5031498;28;20663;-48
2021/04/16 02:10:56;;;;;;;1999.90;999.90;;;21.70;60.90;;;;;;5031464;28;20166;-50
2021/04/16 02:13:23;;;;;;;1999.90;999.90;;;21.30;62.70;;;;;;5031437;28;20653;-42
2021/04/16 02:15:50;;;;;;;1999.90;999.90;;;20.90;64.30;;;;;;5031229;28;20532;-57
2021/04/16 02:18:17;;;;;;;1999.90;999.90;;;20.70;65.30;;;;;;5031378;28;20720;-57
2021/04/16 02:20:44;;;;;;;1999.90;999.90;;;20.50;65.80;;;;;;5031183;28;20266;-46
2021/04/16 02:23:11;;;;;;;1999.90;999.90;;;20.30;66.80;;;;;;5031276;28;20198;-57
2021/04/16 02:25:38;;;;;;;1999.90;999.90;;;20.20;67.60;;;;;;5031190;28;20217;-38
2021/04/16 02:28:05;;;;;;;1999.90;999.90;;;20.00;68.70;;;;;;5031151;28;20595;-47
2021/04/16 02:30:35;;;;;;;1999.90;999.90;;;19.90;69.10;;;;;;5030998;28;20178;-58
2021/04/16 02:33:02;;;;;;;1999.90;999.90;;;19.90;69.40;;;;;;5031113;28;20158;-37
2021/04/16 02:35:30;;;;;;;1999.90;999.90;;;19.70;70.10;;;;;;5031091;28;20680;-38
2021/04/16 02:37:58;;;;;;;1999.90;999.90;;;19.60;71.50;;;;;;5030870;28;20216;-40
2021/04/16 02:40:27;;;;;;;1999.90;999.90;;;19.60;71.40;;;;;;5030966;28;20637;-58
2021/04/16 02:42:54;;;;;;;1999.90;999.90;;;19.50;71.50;;;;;;5030977;28;20709;-39
2021/04/16 02:45:24;;;;;;;1999.90;999.90;;;19.40;71.90;;;;;;5031108;28;20181;-38
2021/04/16 02:47:51;;;;;;;1999.90;999.90;;;19.30;72.70;;;;;;5030393;28;20182;-53
2021/04/16 02:50:22;;;;;;;1999.90;999.90;;;19.30;72.70;;;;;;5030900;28;20166;-56
2021/04/16 02:52:49;;;;;;;1999.90;999.90;;;19.30;72.70;;;;;;5031014;28;20158;-38
2021/04/16 02:55:17;;;;;;;1999.90;999.90;;;19.20;72.70;;;;;;5030894;28;20178;-40
2021/04/16 02:57:44;;;;;;;1999.90;999.90;;;19.10;72.90;;;;;;5030510;28;20244;-40
2021/04/16 03:00:17;;;;;;;1999.90;999.90;;;19.10;73.30;;;;;;5030729;28;20864;-58
2021/04/16 03:02:44;;;;;;;1999.90;999.90;;;19.00;73.50;;;;;;5030537;28;20166;-57
2021/04/16 03:05:11;;;;;;;1999.90;999.90;;;19.00;73.80;;;;;;5030607;28;20177;-39
2021/04/16 03:07:38;;;;;;;1999.90;999.90;;;18.90;73.50;;;;;;5030546;28;20197;-58
2021/04/16 03:10:07;;;;;;;1999.90;999.90;;;18.80;74.20;;;;;;5030582;28;20166;-58
2021/04/16 03:12:34;;;;;;;1999.90;999.90;;;18.90;74.30;;;;;;5030484;28;20185;-39
2021/04/16 03:15:01;;;;;;;1999.90;999.90;;;18.90;74.50;;;;;;5030507;28;20258;-49
2021/04/16 03:17:28;;;;;;;1999.90;999.90;;;18.80;74.60;;;;;;5030445;28;20206;-58
2021/04/16 03:19:55;;;;;;;1999.90;999.90;;;18.80;74.80;;;;;;5030109;28;20304;-58
2021/04/16 03:22:22;;;;;;;1999.90;999.90;;;18.80;75.40;;;;;;5030568;28;20642;-59
2021/04/16 03:24:49;;;;;;;1999.90;999.90;;;18.70;75.20;;;;;;5030448;28;20177;-40
2021/04/16 03:27:16;;;;;;;1999.90;999.90;;;18.70;75.40;;;;;;5030328;28;20169;-56
2021/04/16 03:29:42;;;;;;;1999.90;999.90;;;18.70;75.10;;;;;;5030323;28;20245;-41
2021/04/16 03:32:09;;;;;;;1999.90;999.90;;;18.70;75.10;;;;;;5030199;28;20166;-59
2021/04/16 03:34:36;;;;;;;1999.90;999.90;;;18.60;75.10;;;;;;5030244;28;20218;-58
2021/04/16 03:37:03;;;;;;;1999.90;999.90;;;18.70;74.50;;;;;;5030008;28;20197;-40
2021/04/16 03:39:30;;;;;;;1999.90;999.90;;;18.70;74.60;;;;;;5030098;28;20166;-59
2021/04/16 03:41:57;;;;;;;1999.90;999.90;;;18.70;74.90;;;;;;5030095;28;20172;-39
2021/04/16 03:44:24;;;;;;;1999.90;999.90;;;18.70;74.70;;;;;;5030408;28;20550;-53
2021/04/16 03:46:50;;;;;;;1999.90;999.90;;;18.70;74.40;;;;;;5030159;28;20211;-58
2021/04/16 03:49:17;;;;;;;1999.90;999.90;;;18.70;74.60;;;;;;5029876;28;20596;-58
2021/04/16 03:51:53;;;;;;;1999.90;999.90;;;18.60;75.00;;;;;;5029963;28;20185;-57
2021/04/16 03:54:21;;;;;;;1999.90;999.90;;;18.50;75.50;;;;;;5030033;28;20205;-58
2021/04/16 03:56:49;;;;;;;1999.90;999.90;;;18.40;76.40;;;;;;5029821;28;20193;-52
2021/04/16 03:59:17;;;;;;;1999.90;999.90;;;18.40;76.00;;;;;;5031917;28;20192;-57
2021/04/16 04:01:44;;;;;;;1999.90;999.90;;;18.30;76.00;;;;;;5033396;28;20173;-57
2021/04/16 04:04:12;;;;;;;1999.90;999.90;;;18.40;74.80;;;;;;5033287;28;20181;-57
2021/04/16 04:06:38;;;;;;;1999.90;999.90;;;18.40;74.90;;;;;;5033314;28;20193;-39
2021/04/16 04:09:06;;;;;;;1999.90;999.90;;;18.40;73.60;;;;;;5033329;28;20249;-58
2021/04/16 04:11:33;;;;;;;1999.90;999.90;;;18.50;72.50;;;;;;5033255;28;20235;-58
2021/04/16 04:14:02;;;;;;;1999.90;999.90;;;18.50;72.40;;;;;;5033222;28;20305;-47
2021/04/16 04:16:29;;;;;;;1999.90;999.90;;;18.60;71.90;;;;;;5033076;28;20246;-38
2021/04/16 04:18:56;;;;;;;1999.90;999.90;;;19.30;66.80;;;;;;5033004;28;20358;-58
2021/04/16 04:21:23;;;;;;;1999.90;999.90;;;19.30;67.80;;;;;;5033298;28;20154;-48
2021/04/16 04:23:50;;;;;;;1999.90;999.90;;;19.20;69.20;;;;;;5032847;28;20546;-58
2021/04/16 04:26:17;;;;;;;1999.90;999.90;;;19.20;69.60;;;;;;5033057;28;20174;-39
2021/04/16 04:28:44;;;;;;;1999.90;999.90;;;19.00;70.30;;;;;;5033024;28;20647;-39
2021/04/16 04:31:11;;;;;;;1999.90;999.90;;;18.90;70.80;;;;;;5033002;28;20170;-59
2021/04/16 04:33:37;;;;;;;1999.90;999.90;;;18.80;71.10;;;;;;5032998;28;20681;-39
2021/04/16 04:36:05;;;;;;;1999.90;999.90;;;18.70;71.80;;;;;;5032796;28;20499;-53
2021/04/16 04:38:32;;;;;;;1999.90;999.90;;;18.70;72.70;;;;;;5032875;28;20250;-39
2021/04/16 04:40:59;;;;;;;1999.90;999.90;;;18.60;71.80;;;;;;5032788;28;20161;-39
2021/04/16 04:43:26;;;;;;;1999.90;999.90;;;18.80;71.60;;;;;;5032914;28;20575;-59
2021/04/16 04:45:53;;;;;;;1999.90;999.90;;;18.90;70.60;;;;;;5032860;28;20162;-57
2021/04/16 04:48:19;;;;;;;1999.90;999.90;;;19.10;69.80;;;;;;5032650;28;20683;-48
2021/04/16 04:50:46;;;;;;;1999.90;999.90;;;19.20;69.30;;;;;;5032634;28;20219;-58
2021/04/16 04:53:13;;;;;;;1999.90;999.90;;;19.30;68.60;;;;;;5032618;28;20228;-56
2021/04/16 04:55:40;;;;;;;1999.90;999.90;;;19.20;69.50;;;;;;5032645;28;20624;-58
2021/04/16 04:58:07;;;;;;;1999.90;999.90;;;19.10;70.10;;;;;;5032484;28;20231;-55
2021/04/16 05:00:34;;;;;;;1999.90;999.90;;;19.00;70.10;;;;;;5032484;28;20166;-38
2021/04/16 05:03:00;;;;;;;1999.90;999.90;;;19.00;68.90;;;;;;5032595;28;20170;-39
2021/04/16 05:05:27;;;;;;;1999.90;999.90;;;19.20;69.50;;;;;;5032522;28;20162;-48
2021/04/16 05:07:54;;;;;;;1999.90;999.90;;;19.10;70.20;;;;;;5032446;28;20624;-53
2021/04/16 05:10:21;;;;;;;1999.90;999.90;;;19.00;70.70;;;;;;5032145;28;20506;-57
2021/04/16 05:12:49;;;;;;;1999.90;999.90;;;18.90;72.50;;;;;;5032323;28;20174;-58
2021/04/16 05:15:18;;;;;;;1999.90;999.90;;;18.90;71.70;;;;;;5032321;28;20257;-57
2021/04/16 05:17:44;;;;;;;1999.90;999.90;;;18.90;70.40;;;;;;5032024;28;20671;-55
2021/04/16 05:20:13;;;;;;;1999.90;999.90;;;19.00;69.10;;;;;;5032007;28;20217;-59
2021/04/16 05:22:40;;;;;;;1999.90;999.90;;;19.60;65.00;;;;;;5032042;28;20531;-58
2021/04/16 05:25:08;;;;;;;1999.90;999.90;;;20.30;61.90;;;;;;5032099;28;20173;-56
2021/04/16 05:27:35;;;;;;;1999.90;999.90;;;20.60;62.70;;;;;;5032064;28;20197;-58
2021/04/16 05:30:03;;;;;;;1999.90;999.90;;;20.50;62.70;;;;;;5032185;28;20177;-59
2021/04/16 05:32:30;;;;;;;1999.90;999.90;;;20.30;64.80;;;;;;5032174;28;20170;-39
2021/04/16 05:34:56;;;;;;;1999.90;999.90;;;20.10;64.20;;;;;;5031936;28;20165;-51
2021/04/16 05:37:23;;;;;;;1999.90;999.90;;;20.00;65.10;;;;;;5031710;28;20712;-51
2021/04/16 05:39:51;;;;;;;1999.90;999.90;;;20.10;63.60;;;;;;5031683;28;20177;-41
2021/04/16 05:42:19;;;;;;;1999.90;999.90;;;21.10;59.40;;;;;;5031565;28;20178;-41
2021/04/16 05:44:46;;;;;;;1999.90;999.90;;;22.00;56.60;;;;;;5031509;28;20166;-59
2021/04/16 05:47:13;;;;;;;1999.90;999.90;;;22.20;55.50;;;;;;5031563;28;20257;-47
2021/04/16 05:49:40;;;;;;;1999.90;999.90;;;22.40;54.60;;;;;;5031358;28;20166;-60
2021/04/16 05:52:07;;;;;;;1999.90;999.90;;;22.60;54.10;;;;;;5031426;28;20173;-58
2021/04/16 05:54:34;;;;;;;1999.90;999.90;;;22.50;54.30;;;;;;5031508;28;20219;-46
2021/04/16 05:57:01;;;;;;;1999.90;999.90;;;22.50;54.20;;;;;;5030748;28;20610;-47
2021/04/16 05:59:28;;;;;;;1999.90;999.90;;;22.30;54.80;;;;;;5030213;28;20583;-55
2021/04/16 06:01:54;;;;;;;1999.90;999.90;;;22.20;55.30;;;;;;5030449;28;20182;-49
2021/04/16 06:04:23;;;;;;;1999.90;999.90;;;22.20;56.20;;;;;;5030826;28;20238;-55
2021/04/16 06:06:50;;;;;;;1999.90;999.90;;;22.20;56.50;;;;;;5038878;28;20284;-56
2021/04/16 06:09:17;;;;;;;1999.90;999.90;;;22.20;56.70;;;;;;5030652;28;20174;-55
2021/04/16 06:11:44;;;;;;;1999.90;999.90;;;22.20;57.60;;;;;;5035703;28;20173;-48
2021/04/16 06:14:11;;;;;;;1999.90;999.90;;;22.20;57.60;;;;;;5050160;28;20177;-49
2021/04/16 06:16:38;;;;;;;1999.90;999.90;;;22.10;57.70;;;;;;5049570;28;20201;-44
2021/04/16 06:19:06;;;;;;;1999.90;999.90;;;22.20;57.60;;;;;;5050726;28;20614;-50
2021/04/16 06:21:33;;;;;;;1999.90;999.90;;;22.30;57.60;;;;;;5030171;28;20663;-51
2021/04/16 06:24:00;;;;;;;1999.90;999.90;;;22.30;58.70;;;;;;5030790;28;20178;-51
2021/04/16 06:26:28;;;;;;;1999.90;999.90;;;22.40;56.80;;;;;;5125894;27;20185;-50
2021/04/16 06:28:54;;;;;;;1999.90;999.90;;;22.60;56.30;;;;;;5134856;27;20170;-48
2021/04/16 06:31:23;;;;;;;1999.90;999.90;;;22.80;55.30;;;;;;5073150;27;20170;-53
2021/04/16 06:33:50;;;;;;;1999.90;999.90;;;23.00;55.20;;;;;;5030292;28;20261;-54
2021/04/16 06:36:17;;;;;;;1999.90;999.90;;;23.10;55.50;;;;;;5029798;28;20703;-53
2021/04/16 06:38:45;;;;;;;1999.90;999.90;;;23.20;54.90;;;;;;5030095;28;20645;-50
2021/04/16 06:41:20;;;;;;;1999.90;999.90;;;23.30;52.90;;;;;;5029693;28;20181;-43
2021/04/16 06:43:50;;;;;;;1999.90;999.90;;;23.90;50.20;;;;;;5030227;28;20176;-51
2021/04/16 06:46:31;;;;;;;1999.90;999.90;;;24.10;49.90;;;;;;5029839;28;20227;-58
2021/04/16 06:49:06;;;;;;;1999.90;999.90;;;24.70;47.50;;;;;;5030142;28;20242;-52
2021/04/16 06:51:40;;;;;;;1999.90;999.90;;;24.80;47.40;;;;;;5029525;28;20162;-61
2021/04/16 06:54:14;;;;;;;1999.90;999.90;;;25.10;46.70;;;;;;5019620;28;20166;-44
2021/04/16 06:56:47;;;;;;;1999.90;999.90;;;25.20;46.10;;;;;;5030078;28;20647;-37
2021/04/16 06:59:27;;;;;;;1999.90;999.90;;;25.30;46.10;;;;;;5029762;28;20170;-47
2021/04/16 07:02:03;;;;;;;1999.90;999.90;;;25.50;45.00;;;;;;5029747;28;20174;-44
2021/04/16 07:04:40;;;;;;;1999.90;999.90;;;25.50;44.30;;;;;;5018258;28;20158;-44
2021/04/16 07:07:33;;;;;;;1999.90;999.90;;;25.60;44.10;;;;;;5030144;28;20177;-55
2021/04/16 07:10:20;;;;;;;1999.90;999.90;;;25.70;43.50;;;;;;5028403;28;20166;-57
2021/04/16 07:12:50;;;;;;;1999.90;999.90;;;25.90;43.90;;;;;;5029485;28;20172;-53
2021/04/16 07:15:28;;;;;;;1999.90;999.90;;;25.90;44.00;;;;;;5029520;28;20520;-48
2021/04/16 07:17:55;;;;;;;1999.90;999.90;;;26.00;43.10;;;;;;5029527;28;20201;-43
2021/04/16 07:20:24;;;;;;;1999.90;999.90;;;26.20;43.20;;;;;;5029670;28;20210;-47
2021/04/16 07:22:56;;;;;;;1999.90;999.90;;;26.40;42.50;;;;;;5029654;28;20261;-45
2021/04/16 07:25:38;;;;;;;1999.90;999.90;;;26.50;41.50;;;;;;5029808;28;20235;-50
2021/04/16 07:28:11;;;;;;;1999.90;999.90;;;26.70;41.70;;;;;;5029603;28;20154;-40
2021/04/16 07:30:50;;;;;;;1999.90;999.90;;;26.80;40.50;;;;;;5028246;28;20162;-42
2021/04/16 07:33:39;;;;;;;1999.90;999.90;;;26.90;40.40;;;;;;5029436;28;20166;-58
2021/04/16 07:36:21;;;;;;;1999.90;999.90;;;27.00;42.80;;;;;;5029650;28;20631;-47
2021/04/16 07:39:00;;;;;;;1999.90;999.90;;;27.10;42.60;;;;;;5029255;28;20265;-48
2021/04/16 07:41:29;;;;;;;1999.90;999.90;;;27.20;41.90;;;;;;5029360;28;20177;-50
2021/04/16 07:43:59;;;;;;;1999.90;999.90;;;27.30;42.60;;;;;;5043899;28;20295;-45
2021/04/16 07:46:26;;;;;;;1999.90;999.90;;;27.40;41.90;;;;;;5032089;28;20273;-54
2021/04/16 07:49:13;;;;;;;1999.90;999.90;;;27.50;41.40;;;;;;5029172;28;20189;-56
2021/04/16 07:51:45;;;;;;;1999.90;999.90;;;27.70;41.70;;;;;;5029467;28;20539;-58
2021/04/16 07:54:22;;;;;;;1999.90;999.90;;;27.80;40.40;;;;;;5029216;28;20254;-58
2021/04/16 07:57:03;;;;;;;1999.90;999.90;;;28.00;40.30;;;;;;5029257;28;20189;-69
2021/04/16 07:59:30;;;;;;;1999.90;999.90;;;28.10;38.90;;;;;;5028989;28;20173;-49
2021/04/16 08:01:57;;;;;;;1999.90;999.90;;;28.40;36.30;;;;;;5029272;28;20174;-55
2021/04/16 08:04:35;;;;;;;1999.90;999.90;;;28.50;36.30;;;;;;5028957;28;20178;-58
2021/04/16 08:07:31;;;;;;;1999.90;999.90;;;28.70;36.40;;;;;;5028544;28;20234;-48
2021/04/16 08:09:59;;;;;;;1999.90;999.90;;;28.70;35.10;;;;;;5028157;28;20230;-44
2021/04/16 08:12:28;;;;;;;1999.90;999.90;;;28.80;34.70;;;;;;5028559;28;20180;-49
2021/04/16 08:15:20;;;;;;;1999.90;999.90;;;29.30;34.90;;;;;;5028452;28;20174;-51
2021/04/16 08:17:48;;;;;;;1999.90;999.90;;;29.80;34.00;;;;;;5028543;28;20262;-41
2021/04/16 08:20:36;;;;;;;1999.90;999.90;;;29.70;32.70;;;;;;5028403;28;20217;-60
2021/04/16 08:23:05;;;;;;;1999.90;999.90;;;30.00;32.50;;;;;;5028440;28;20476;-48
2021/04/16 08:25:41;;;;;;;1999.90;999.90;;;29.90;32.40;;;;;;5028441;28;20177;-41
2021/04/16 08:28:12;;;;;;;1999.90;999.90;;;30.00;32.70;;;;;;5028404;28;20188;-45
2021/04/16 08:30:47;;;;;;;1999.90;999.90;;;30.70;32.60;;;;;;5028465;28;20146;-44
2021/04/16 08:33:23;;;;;;;1999.90;999.90;;;30.80;30.90;;;;;;5028288;28;20226;-41
2021/04/16 08:35:58;;;;;;;1999.90;999.90;;;30.70;31.10;;;;;;5028340;28;20650;-45
2021/04/16 08:38:29;;;;;;;1999.90;999.90;;;30.80;31.00;;;;;;5028061;28;20655;-50
2021/04/16 08:41:00;;;;;;;1999.90;999.90;;;30.90;30.90;;;;;;5028637;28;20170;-51
2021/04/16 08:43:30;;;;;;;1999.90;999.90;;;30.80;31.60;;;;;;5028365;28;20170;-47
2021/04/16 08:45:58;;;;;;;1999.90;999.90;;;31.10;31.00;;;;;;5031646;28;20245;-53
2021/04/16 08:48:35;;;;;;;1999.90;999.90;;;31.00;30.70;;;;;;5031809;28;20228;-41
2021/04/16 08:51:10;;;;;;;1999.90;999.90;;;31.10;30.80;;;;;;5031968;28;20187;-46
2021/04/16 08:53:43;;;;;;;1999.90;999.90;;;31.00;30.60;;;;;;5029405;28;20158;-54
2021/04/16 08:56:30;;;;;;;1999.90;999.90;;;31.70;30.40;;;;;;5032077;28;20181;-58
2021/04/16 08:58:57;;;;;;;1999.90;999.90;;;32.30;30.10;;;;;;5031709;28;20257;-50
2021/04/16 09:01:35;;;;;;;1999.90;999.90;;;32.60;30.00;;;;;;5031763;28;20166;-52
2021/04/16 09:04:22;;;;;;;1999.90;999.90;;;32.70;29.50;;;;;;5030392;28;20274;-57
2021/04/16 09:06:55;;;;;;;1999.90;999.90;;;32.60;29.70;;;;;;5031752;28;20182;-41
2021/04/16 09:09:44;;;;;;;1999.90;999.90;;;32.10;29.60;;;;;;5031925;28;20170;-42
2021/04/16 09:12:31;;;;;;;1999.90;999.90;;;31.60;30.70;;;;;;5031519;28;20202;-42
2021/04/16 09:14:58;;;;;;;1999.90;999.90;;;31.80;30.30;;;;;;5031140;28;20166;-46
2021/04/16 09:18:00;;;;;;;1999.90;999.90;;;31.40;30.70;;;;;;5031120;28;20202;-41
2021/04/16 09:20:36;;;;;;;1999.90;999.90;;;31.30;30.60;;;;;;5054804;28;20228;-51
2021/04/16 09:23:17;;;;;;;1999.90;999.90;;;31.60;30.60;;;;;;5033232;28;20189;-57
2021/04/16 09:25:50;;;;;;;1999.90;999.90;;;32.40;31.20;;;;;;5029871;28;20187;-49
2021/04/16 09:28:23;;;;;;;1999.90;999.90;;;33.20;30.10;;;;;;5031360;28;20178;-58
2021/04/16 09:30:56;;;;;;;1999.90;999.90;;;33.30;29.50;;;;;;5028726;28;20174;-55
2021/04/16 09:33:27;;;;;;;1999.90;999.90;;;33.60;29.40;;;;;;5047310;27;20651;-49
2021/04/16 09:36:01;;;;;;;1999.90;999.90;;;32.70;29.60;;;;;;5040271;28;20161;-46
2021/04/16 09:38:37;;;;;;;1999.90;999.90;;;33.10;30.00;;;;;;5047886;28;20550;-53
2021/04/16 09:41:27;;;;;;;1999.90;999.90;;;33.50;28.90;;;;;;5037791;28;20184;-39
2021/04/16 09:43:57;;;;;;;1999.90;999.90;;;32.90;29.20;;;;;;5031159;28;20636;-39
2021/04/16 09:46:33;;;;;;;1999.90;999.90;;;33.00;29.30;;;;;;5031615;28;20182;-60
2021/04/16 09:49:28;;;;;;;1999.90;999.90;;;33.30;29.70;;;;;;5031331;28;20257;-51
2021/04/16 09:51:58;;;;;;;1999.90;999.90;;;33.20;28.80;;;;;;5030783;28;20215;-43
2021/04/16 09:54:38;;;;;;;1999.90;999.90;;;32.40;29.30;;;;;;5031959;28;20181;-43
2021/04/16 09:57:06;;;;;;;1999.90;999.90;;;32.50;29.90;;;;;;5043297;28;20659;-41
2021/04/16 09:59:34;;;;;;;1999.90;999.90;;;33.00;29.90;;;;;;5045517;28;20632;-46
2021/04/16 10:05:01;;;;;;;1999.90;999.90;;;33.70;28.30;;;;;;5029085;28;20166;-43
2021/04/16 10:07:52;;;;;;;1999.90;999.90;;;33.70;27.40;;;;;;5030737;28;20203;-40
2021/04/16 10:10:38;;;;;;;1999.90;999.90;;;34.00;27.20;;;;;;5030974;28;20596;-38
2021/04/16 10:13:21;;;;;;;1999.90;999.90;;;34.20;27.10;;;;;;5030063;28;20205;-47
2021/04/16 10:15:59;;;;;;;1999.90;999.90;;;33.90;27.70;;;;;;5030559;28;20194;-40
2021/04/16 10:18:36;;;;;;;1999.90;999.90;;;33.30;28.40;;;;;;5030683;28;20201;-40
2021/04/16 10:21:29;;;;;;;1999.90;999.90;;;33.00;28.90;;;;;;5030733;28;20261;-47
2021/04/16 10:25:06;;;;;;;1999.90;999.90;;;32.40;29.50;;;;;;5071724;27;20198;-45
2021/04/16 10:36:40;;;;;;;1999.90;999.90;;;33.00;29.50;;;;;;5030257;28;20259;-37
2021/04/16 12:39:02;;;;;;;1999.90;999.90;;;34.20;26.70;;;;;;5052017;28;20242;-50
2021/04/16 12:41:34;;;;;;;1999.90;999.90;;;33.70;26.90;;;;;;5052257;28;20637;-57
2021/04/16 12:44:02;;;;;;;1999.90;999.90;;;33.30;27.40;;;;;;5052520;28;20592;-56
2021/04/16 12:46:37;;;;;;;1999.90;999.90;;;33.50;27.40;;;;;;5052173;28;20161;-58
2021/04/16 12:49:05;;;;;;;1999.90;999.90;;;33.50;27.30;;;;;;5052724;28;20507;-53
2021/04/16 12:51:32;;;;;;;1999.90;999.90;;;33.30;27.40;;;;;;5052629;28;20619;-59
2021/04/16 12:53:59;;;;;;;1999.90;999.90;;;33.00;27.80;;;;;;5052729;28;20632;-58
2021/04/16 12:56:34;;;;;;;1999.90;999.90;;;32.90;27.60;;;;;;5052156;28;20184;-50
2021/04/16 12:59:07;;;;;;;1999.90;999.90;;;32.90;27.80;;;;;;5052250;28;20619;-57
2021/04/16 13:01:34;;;;;;;1999.90;999.90;;;32.90;27.80;;;;;;5052174;28;20251;-52
2021/04/16 13:04:01;;;;;;;1999.90;999.90;;;33.20;28.00;;;;;;5051821;28;20181;-59
2021/04/16 13:06:49;;;;;;;1999.90;999.90;;;33.00;27.80;;;;;;5051812;28;20507;-54
2021/04/16 13:09:19;;;;;;;1999.90;999.90;;;33.30;27.90;;;;;;5051880;28;20161;-59
2021/04/16 13:11:48;;;;;;;1999.90;999.90;;;33.40;27.90;;;;;;5051858;28;20165;-57
2021/04/16 13:14:16;;;;;;;1999.90;999.90;;;33.50;27.90;;;;;;5051709;28;20196;-49
2021/04/16 13:16:43;;;;;;;1999.90;999.90;;;33.60;27.70;;;;;;5051539;28;20168;-60
2021/04/16 13:19:21;;;;;;;1999.90;999.90;;;33.70;27.80;;;;;;5051441;28;20577;-54
2021/04/16 13:21:48;;;;;;;1999.90;999.90;;;33.80;27.60;;;;;;5051542;28;20690;-59
2021/04/16 13:24:14;;;;;;;1999.90;999.90;;;33.80;27.40;;;;;;5051526;28;20212;-60
2021/04/16 13:26:41;;;;;;;1999.90;999.90;;;33.60;27.50;;;;;;5051586;28;20503;-42
2021/04/16 13:29:08;;;;;;;1999.90;999.90;;;33.30;27.60;;;;;;5051724;28;20596;-50
2021/04/16 13:31:37;;;;;;;1999.90;999.90;;;33.50;27.40;;;;;;5051279;28;20657;-52
2021/04/16 13:34:04;;;;;;;1999.90;999.90;;;33.50;27.50;;;;;;5051387;28;20173;-47
2021/04/16 13:36:33;;;;;;;1999.90;999.90;;;33.30;27.80;;;;;;5051265;28;20534;-52
2021/04/16 13:39:05;;;;;;;1999.90;999.90;;;33.30;27.80;;;;;;5051195;28;20230;-41
2021/04/16 13:41:32;;;;;;;1999.90;999.90;;;33.00;28.10;;;;;;5051323;28;20612;-58
2021/04/16 13:43:59;;;;;;;1999.90;999.90;;;32.90;28.30;;;;;;5051097;28;20278;-53
2021/04/16 13:46:30;;;;;;;1999.90;999.90;;;33.00;28.00;;;;;;5050968;28;20173;-51
2021/04/16 13:49:00;;;;;;;1999.90;999.90;;;33.00;28.20;;;;;;5050981;28;20181;-54
2021/04/16 13:51:27;;;;;;;1999.90;999.90;;;32.90;28.30;;;;;;5050803;28;20200;-51
2021/04/16 13:53:54;;;;;;;1999.90;999.90;;;32.80;28.30;;;;;;5051025;28;20624;-48
2021/04/16 13:56:22;;;;;;;1999.90;999.90;;;32.90;28.30;;;;;;5050892;28;20192;-50
2021/04/16 13:58:48;;;;;;;1999.90;999.90;;;32.90;28.20;;;;;;5050775;28;20197;-51
2021/04/16 14:01:15;;;;;;;1999.90;999.90;;;33.00;28.10;;;;;;5050894;28;20253;-43
2021/04/16 14:03:46;;;;;;;1999.90;999.90;;;32.90;28.20;;;;;;5051042;28;20250;-46
2021/04/16 14:06:24;;;;;;;1999.90;999.90;;;32.80;28.70;;;;;;5051365;28;20157;-50
2021/04/16 14:08:59;;;;;;;1999.90;999.90;;;32.80;29.00;;;;;;5050929;28;20154;-55
2021/04/16 14:11:28;;;;;;;1999.90;999.90;;;32.90;28.30;;;;;;5050738;28;20253;-50
2021/04/16 14:13:54;;;;;;;1999.90;999.90;;;33.00;27.00;;;;;;5050716;28;20181;-47
2021/04/16 14:16:34;;;;;;;1999.90;999.90;;;33.00;27.50;;;;;;5050794;28;20262;-47
2021/04/16 14:19:09;;;;;;;1999.90;999.90;;;32.90;27.50;;;;;;5050827;28;20224;-39
2021/04/16 14:21:40;;;;;;;1999.90;999.90;;;33.00;27.50;;;;;;5050965;28;20161;-47
2021/04/16 14:24:13;;;;;;;1999.90;999.90;;;33.00;27.50;;;;;;5050916;28;20170;-59
2021/04/16 14:26:45;;;;;;;1999.90;999.90;;;33.20;27.50;;;;;;5051052;28;20161;-55
2021/04/16 14:29:12;;;;;;;1999.90;999.90;;;33.20;27.50;;;;;;5051523;28;20157;-56